Time;durP1;ratioP1;P1;durP2;ratioP2;P2;SDS_P1;SDS_P2;PMS_P1;PMS_P2;Temp;Humidity;BMP_temperature;BMP_pressure;BME280_temperature;BME280_humidity;BME280_pressure;Samples;Min_cycle;Max_cycle;Signal;HPM_P1;HPM_P2
2022/06/16 00:01:58;;;;;;;18.80;11.55;;;;;;;14.02;94.86;98114.59;10427632;28;20059;-57
2022/06/16 00:06:59;;;;;;;;;;;;;;;13.90;95.76;98121.66;10421566;28;20075;-57
2022/06/16 00:11:59;;;;;;;19.63;11.35;;;;;;;13.84;96.01;98110.38;10430101;28;19955;-57
2022/06/16 00:16:58;;;;;;;16.38;12.02;;;;;;;13.85;95.65;98105.16;10437007;28;20889;-57
2022/06/16 00:21:57;;;;;;;18.48;11.95;;;;;;;13.83;96.14;98103.47;10457485;28;20060;-57
2022/06/16 00:26:57;;;;;;;19.02;12.07;;;;;;;13.85;95.59;98099.94;10419634;28;20504;-57
2022/06/16 00:31:56;;;;;;;19.15;11.98;;;;;;;13.87;96.00;98106.03;10379685;28;20077;-57
2022/06/16 00:36:55;;;;;;;;;;;;;;;13.75;96.51;98112.22;10381149;28;20056;-57
2022/06/16 00:41:54;;;;;;;15.05;10.85;;;;;;;13.60;97.79;98108.84;10380115;28;19908;-57
2022/06/16 00:46:53;;;;;;;19.13;12.02;;;;;;;13.64;97.45;98098.38;10403990;28;20051;-57
2022/06/16 00:52:02;;;;;;;18.15;11.93;;;;;;;13.55;97.98;98109.75;10385221;28;20071;-57
2022/06/16 00:57:05;;;;;;;16.07;11.13;;;;;;;13.40;98.15;98102.00;10389534;28;20515;-57
2022/06/16 01:02:06;;;;;;;19.63;12.43;;;;;;;13.38;98.10;98097.69;10405426;28;20155;-58
2022/06/16 01:07:11;;;;;;;17.13;12.23;;;;;;;13.30;98.11;98085.53;10379050;28;20064;-57
2022/06/16 01:17:58;;;;;;;17.58;12.40;;;;;;;13.25;98.15;98082.09;10417243;28;20475;-57
2022/06/16 01:23:31;;;;;;;20.65;12.55;;;;;;;13.28;97.96;98074.28;10406785;28;20068;-57
2022/06/16 01:28:49;;;;;;;19.13;12.70;;;;;;;13.29;97.63;98067.31;10378635;28;20068;-57
2022/06/16 01:34:03;;;;;;;20.55;13.52;;;;;;;13.22;98.02;98065.63;10402578;28;20056;-57
2022/06/16 01:39:16;;;;;;;18.85;12.20;;;;;;;13.16;98.41;98074.34;10396472;28;20064;-57
2022/06/16 01:44:24;;;;;;;20.42;14.35;;;;;;;13.11;98.06;98058.75;10381676;28;20060;-57
2022/06/16 01:49:41;;;;;;;19.77;12.55;;;;;;;13.19;97.87;98065.63;10422002;28;20071;-57
2022/06/16 01:54:44;;;;;;;18.60;12.18;;;;;;;13.19;97.86;98065.63;10414974;28;20540;-57
2022/06/16 01:59:46;;;;;;;17.15;11.02;;;;;;;13.07;98.10;98071.78;10393512;28;20060;-57
2022/06/16 02:05:09;;;;;;;18.38;11.35;;;;;;;13.05;98.42;98074.44;10395574;28;20068;-57
2022/06/16 02:10:32;;;;;;;18.58;11.90;;;;;;;13.06;97.92;98070.06;10391351;28;20486;-57
2022/06/16 02:16:10;;;;;;;19.38;11.93;;;;;;;13.06;98.13;98076.16;10419372;28;20071;-57
2022/06/16 02:21:22;;;;;;;17.52;12.65;;;;;;;13.05;98.02;98073.56;10387569;28;20071;-57
2022/06/16 02:26:21;;;;;;;22.30;11.88;;;;;;;13.03;97.93;98076.16;10379591;28;20060;-57
2022/06/16 02:31:30;;;;;;;18.75;12.60;;;;;;;12.99;98.25;98073.59;10379422;28;20033;-57
2022/06/16 02:37:00;;;;;;;18.73;12.18;;;;;;;13.01;98.02;98077.06;10394050;28;20091;-57
2022/06/16 02:42:17;;;;;;;20.63;13.20;;;;;;;12.99;98.33;98073.59;10408102;28;20064;-57
2022/06/16 02:47:47;;;;;;;19.17;13.75;;;;;;;12.98;98.09;98077.06;10389026;28;20060;-57
2022/06/16 02:52:53;;;;;;;22.58;14.18;;;;;;;12.91;98.34;98079.72;10401150;28;20503;-57
2022/06/16 02:57:56;;;;;;;22.50;14.20;;;;;;;12.87;98.65;98084.94;10390228;28;20480;-57
2022/06/16 03:02:55;;;;;;;20.88;14.57;;;;;;;12.76;99.38;98089.31;10387953;28;20060;-57
2022/06/16 03:07:55;;;;;;;20.40;13.75;;;;;;;12.72;99.59;98091.97;10375692;28;20028;-57
2022/06/16 03:12:53;;;;;;;22.90;14.45;;;;;;;12.81;99.18;98090.16;10373819;28;20071;-57
2022/06/16 03:17:52;;;;;;;22.45;14.60;;;;;;;12.83;98.87;98089.28;10373714;28;20096;-57
2022/06/16 03:22:52;;;;;;;26.42;15.98;;;;;;;12.77;99.46;98088.47;10376615;28;20056;-57
2022/06/16 03:27:50;;;;;;;;;;;;;;;12.72;100.00;98091.97;10374556;28;20084;-57
2022/06/16 03:32:50;;;;;;;29.30;17.08;;;;;;;12.82;99.85;98091.91;10390424;28;19909;-57
2022/06/16 03:37:49;;;;;;;30.75;17.98;;;;;;;12.92;99.73;98083.19;10390173;28;20072;-57
2022/06/16 03:42:48;;;;;;;25.77;17.13;;;;;;;13.05;99.59;98082.25;10375709;28;20025;-57
2022/06/16 03:47:48;;;;;;;29.27;18.67;;;;;;;13.22;99.50;98084.75;10373812;28;20499;-57
2022/06/16 03:52:47;;;;;;;28.63;18.63;;;;;;;13.39;99.48;98089.84;10386784;28;20072;-57
2022/06/16 03:57:46;;;;;;;30.65;17.95;;;;;;;13.53;99.28;98090.59;10392865;28;20099;-57
2022/06/16 04:02:46;;;;;;;27.13;19.25;;;;;;;13.67;99.24;98089.66;10411602;28;20028;-57
2022/06/16 04:07:45;;;;;;;29.58;19.20;;;;;;;13.77;99.08;98086.09;10414298;28;20060;-57
2022/06/16 04:12:44;;;;;;;32.53;19.27;;;;;;;13.86;98.36;98086.00;10414686;28;20099;-57
2022/06/16 04:17:43;;;;;;;22.48;14.82;;;;;;;13.91;98.11;98084.25;10395854;28;20029;-57
2022/06/16 04:22:42;;;;;;;18.88;13.70;;;;;;;13.87;97.79;98079.94;10395494;28;20031;-57
2022/06/16 04:27:43;;;;;;;18.85;12.68;;;;;;;13.79;97.74;98086.94;10410591;28;20093;-57
2022/06/16 04:32:43;;;;;;;22.30;13.50;;;;;;;13.86;97.79;98086.00;10413969;28;20067;-57
2022/06/16 04:37:42;;;;;;;21.55;13.68;;;;;;;13.97;97.49;98088.53;10437961;28;20074;-57
2022/06/16 04:42:41;;;;;;;19.15;12.27;;;;;;;13.97;97.19;98086.78;10455050;28;20024;-57
2022/06/16 04:47:40;;;;;;;17.67;13.18;;;;;;;13.98;97.80;98087.66;10456381;28;20514;-58
2022/06/16 04:52:39;;;;;;;20.75;11.73;;;;;;;13.92;97.61;98080.75;10440414;28;20071;-58
2022/06/16 04:57:39;;;;;;;20.38;11.73;;;;;;;13.65;98.52;98081.00;10437110;28;20044;-58
2022/06/16 05:02:39;;;;;;;18.67;13.00;;;;;;;13.62;98.75;98070.59;10464790;28;20055;-57
2022/06/16 05:07:38;;;;;;;17.58;12.27;;;;;;;13.89;98.41;98083.41;10453115;28;20514;-58
2022/06/16 05:12:37;;;;;;;16.00;12.88;;;;;;;13.97;98.20;98071.13;10455690;28;20051;-57
2022/06/16 05:17:37;;;;;;;17.48;11.68;;;;;;;14.08;97.97;98080.63;10455918;28;20048;-58
2022/06/16 05:22:36;;;;;;;17.83;12.27;;;;;;;14.10;98.36;98084.94;10438514;28;20060;-58
2022/06/16 05:27:34;;;;;;;;;;;;;;;14.35;98.18;98089.91;10450646;28;20056;-58
2022/06/16 05:32:33;;;;;;;17.80;13.52;;;;;;;14.54;97.39;98090.56;10437420;28;20006;-58
2022/06/16 05:37:33;;;;;;;14.55;11.60;;;;;;;14.79;97.02;98085.94;10422511;28;20016;-57
2022/06/16 05:42:32;;;;;;;15.88;11.93;;;;;;;15.04;96.33;98082.13;10420884;28;20052;-58
2022/06/16 05:47:31;;;;;;;15.70;12.25;;;;;;;15.30;94.61;98074.81;10457111;28;20100;-58
2022/06/16 05:52:29;;;;;;;;;;;;;;;15.55;93.64;98086.63;10457790;28;20117;-58
2022/06/16 05:57:28;;;;;;;16.98;12.05;;;;;;;15.85;92.51;98068.72;10458550;28;20302;-58
2022/06/16 06:02:27;;;;;;;;;;;;;;;16.16;91.97;98083.88;10455800;28;20036;-58
2022/06/16 06:16:25;;;;;;;20.23;11.40;;;;;;;16.22;90.33;98083.78;10455255;28;20405;-58
2022/06/16 06:18:02;;;;;;;15.07;9.52;;;;;;;16.73;88.19;98079.28;10446872;28;20048;-58
2022/06/16 06:23:02;;;;;;;13.98;9.43;;;;;;;16.76;85.65;98072.25;10441557;28;20495;-58
2022/06/16 06:28:01;;;;;;;12.10;9.10;;;;;;;16.98;84.82;98075.28;10417119;28;20056;-58
2022/06/16 06:33:01;;;;;;;10.90;8.38;;;;;;;17.20;82.62;98075.69;10436970;28;20056;-58
2022/06/16 06:38:00;;;;;;;12.00;8.90;;;;;;;17.39;82.19;98079.63;10441872;28;20839;-58
2022/06/16 06:43:00;;;;;;;12.65;8.82;;;;;;;17.58;80.51;98066.91;10443464;28;20494;-58
2022/06/16 06:47:59;;;;;;;11.25;8.48;;;;;;;18.00;80.56;98072.03;10456685;28;20052;-58
2022/06/16 06:52:58;;;;;;;12.73;8.65;;;;;;;18.39;79.46;98080.63;10456749;28;20064;-58
2022/06/16 06:57:57;;;;;;;17.27;8.38;;;;;;;18.70;78.42;98063.16;10442014;28;20062;-58
2022/06/16 07:02:56;;;;;;;10.45;8.70;;;;;;;19.01;77.71;98057.84;10455880;28;20059;-58
2022/06/16 07:07:58;;;;;;;12.52;9.15;;;;;;;19.21;75.95;98059.91;10439852;28;20038;-58
2022/06/16 07:12:57;;;;;;;10.57;7.95;;;;;;;19.35;73.99;98064.72;10452553;28;20047;-58
2022/06/16 07:17:56;;;;;;;12.77;9.43;;;;;;;19.51;73.33;98060.69;10438292;28;20056;-58
2022/06/16 07:22:55;;;;;;;13.85;9.65;;;;;;;19.76;72.43;98057.28;10443479;28;20031;-58
2022/06/16 07:27:54;;;;;;;16.15;10.25;;;;;;;20.03;71.90;98052.88;10456391;28;20055;-58
2022/06/16 07:32:53;;;;;;;12.68;9.55;;;;;;;20.21;71.67;98051.34;10456266;28;20036;-58
2022/06/16 07:37:52;;;;;;;12.88;9.70;;;;;;;20.44;71.05;98040.03;10437164;28;20084;-58
2022/06/16 07:42:56;;;;;;;12.35;9.45;;;;;;;20.82;69.48;98029.81;10412992;28;20039;-58
2022/06/16 07:48:00;;;;;;;12.43;9.75;;;;;;;21.15;68.30;98032.97;10439503;28;20052;-58
2022/06/16 07:52:59;;;;;;;11.90;9.13;;;;;;;21.35;63.64;98040.09;10438675;28;20075;-58
2022/06/16 07:57:58;;;;;;;11.63;8.85;;;;;;;21.47;60.25;98029.03;10450190;28;20056;-58
2022/06/16 08:02:57;;;;;;;8.85;7.95;;;;;;;21.66;61.20;98026.50;10450485;28;20048;-58
2022/06/16 08:07:57;;;;;;;9.27;7.82;;;;;;;21.84;60.74;98032.81;10442980;28;20060;-58
2022/06/16 08:12:56;;;;;;;9.15;7.82;;;;;;;21.92;58.18;98038.66;10453576;28;20075;-58
2022/06/16 08:17:56;;;;;;;11.05;8.20;;;;;;;22.08;56.90;98023.00;10444087;28;20044;-58
2022/06/16 08:22:55;;;;;;;9.85;8.52;;;;;;;22.28;60.21;98040.66;10452327;28;20068;-58
2022/06/16 08:27:55;;;;;;;9.40;6.90;;;;;;;22.38;54.89;98031.38;10426526;28;20038;-58
2022/06/16 08:32:55;;;;;;;9.00;7.15;;;;;;;22.35;52.99;98013.00;10459305;28;20476;-58
2022/06/16 08:37:54;;;;;;;9.05;7.53;;;;;;;22.74;53.75;98032.47;10464160;28;20047;-58
2022/06/16 08:43:00;;;;;;;9.52;6.43;;;;;;;22.84;52.42;98030.28;10465495;28;20067;-58
2022/06/16 08:48:23;;;;;;;7.63;6.30;;;;;;;22.83;49.88;98028.53;10464252;28;20080;-58
2022/06/16 08:53:45;;;;;;;9.10;7.60;;;;;;;22.87;52.56;98019.53;10447708;28;20795;-58
2022/06/16 08:59:12;;;;;;;8.77;6.90;;;;;;;22.88;53.35;98037.13;10439140;28;20514;-58
2022/06/16 09:04:22;;;;;;;10.45;6.68;;;;;;;23.06;54.23;98023.03;10446778;28;20446;-62
2022/06/16 09:15:13;;;;;;;8.98;7.40;;;;;;;23.41;53.63;98020.47;10411384;28;20126;-58
2022/06/16 09:20:19;;;;;;;8.38;6.60;;;;;;;23.56;52.53;98021.53;10450434;28;20063;-58
2022/06/16 09:25:25;;;;;;;9.18;7.07;;;;;;;23.26;50.96;98008.84;10432537;28;20060;-58
2022/06/16 09:30:30;;;;;;;11.35;7.47;;;;;;;23.15;52.18;98005.84;10450974;28;20048;-58
2022/06/16 09:35:40;;;;;;;8.52;7.00;;;;;;;23.06;52.60;98006.28;10460524;28;20499;-58
2022/06/16 09:40:50;;;;;;;10.15;7.90;;;;;;;22.93;51.42;97991.00;10458206;28;20583;-58
2022/06/16 09:45:57;;;;;;;8.90;7.35;;;;;;;22.96;50.47;97997.94;10436241;28;20063;-58
2022/06/16 09:51:08;;;;;;;9.02;6.93;;;;;;;23.13;50.53;97995.34;10443480;28;20067;-58
2022/06/16 09:56:17;;;;;;;9.75;7.13;;;;;;;23.52;49.93;97989.06;10474949;28;20089;-58
2022/06/16 10:01:21;;;;;;;9.13;7.70;;;;;;;23.88;49.51;97981.97;10472648;28;20805;-58
2022/06/16 10:06:36;;;;;;;9.35;6.88;;;;;;;24.08;48.51;97978.31;10431749;28;20094;-58
2022/06/16 10:11:53;;;;;;;8.32;7.00;;;;;;;24.02;48.34;97979.47;10458503;28;20475;-58
2022/06/16 10:16:58;;;;;;;10.10;7.28;;;;;;;23.97;47.74;97949.69;10435298;28;20047;-58
2022/06/16 10:22:00;;;;;;;10.10;7.18;;;;;;;23.96;47.29;97971.81;10415252;28;20068;-58
2022/06/16 10:26:59;;;;;;;10.43;7.50;;;;;;;24.02;47.87;97967.06;10461435;28;20055;-58
2022/06/16 10:32:00;;;;;;;9.18;7.93;;;;;;;24.34;45.17;97966.34;10479019;28;20485;-58
2022/06/16 10:37:02;;;;;;;8.20;7.40;;;;;;;24.65;46.67;97962.88;10474102;28;20052;-58
2022/06/16 10:42:24;;;;;;;9.13;7.72;;;;;;;24.89;45.37;97953.59;10470882;28;20459;-58
2022/06/16 10:47:34;;;;;;;10.00;7.38;;;;;;;24.86;44.53;97948.44;10464536;28;20078;-58
2022/06/16 10:52:38;;;;;;;8.70;6.40;;;;;;;24.72;44.70;97928.91;10470658;28;20072;-58
2022/06/16 10:57:48;;;;;;;9.13;6.90;;;;;;;24.97;44.51;97937.25;10467836;28;20052;-58
2022/06/16 11:03:08;;;;;;;8.73;6.95;;;;;;;24.94;45.27;97944.50;10470589;28;20560;-58
2022/06/16 11:08:12;;;;;;;8.02;6.78;;;;;;;25.08;45.95;97940.16;10474047;28;20467;-58
2022/06/16 11:13:20;;;;;;;10.25;7.18;;;;;;;25.37;45.50;97936.75;10450863;28;20130;-58
2022/06/16 11:18:23;;;;;;;8.88;6.22;;;;;;;25.50;45.39;97935.94;10476457;28;20056;-58
2022/06/16 11:23:24;;;;;;;8.45;6.57;;;;;;;25.65;45.32;97938.69;10486557;28;20078;-58
2022/06/16 11:28:26;;;;;;;8.02;6.10;;;;;;;25.57;43.38;97936.44;10457392;28;20152;-58
2022/06/16 11:39:13;;;;;;;8.18;6.65;;;;;;;26.14;43.46;97923.25;10416397;28;20068;-58
2022/06/16 11:44:24;;;;;;;8.02;6.40;;;;;;;26.52;42.32;97916.53;10414412;28;20074;-58
2022/06/16 11:49:36;;;;;;;8.98;6.55;;;;;;;26.67;43.29;97915.53;10437675;28;20055;-56
2022/06/16 11:54:38;;;;;;;7.60;5.90;;;;;;;26.27;42.82;97935.81;10442502;28;20080;-56
2022/06/16 12:00:02;;;;;;;6.97;5.72;;;;;;;26.39;42.64;97924.41;10451245;28;20064;-56
2022/06/16 12:05:48;;;;;;;7.90;5.63;;;;;;;26.28;41.27;97908.28;10452383;28;20089;-56
2022/06/16 12:10:53;;;;;;;7.78;5.55;;;;;;;26.27;40.77;97909.22;10414038;28;20529;-57
2022/06/16 12:16:35;;;;;;;8.65;6.35;;;;;;;26.21;41.12;97905.16;10423134;28;20056;-56
2022/06/16 12:21:53;;;;;;;6.85;5.88;;;;;;;26.70;41.09;97907.38;10404293;28;20067;-56
2022/06/16 12:26:58;;;;;;;5.47;4.97;;;;;;;27.07;41.58;97904.13;10458669;28;20067;-56
2022/06/16 12:32:25;;;;;;;5.95;5.35;;;;;;;27.20;40.56;97899.72;10459670;28;20070;-56
2022/06/16 12:37:28;;;;;;;7.97;5.75;;;;;;;27.28;40.33;97897.38;10421173;28;20064;-57
2022/06/16 12:42:32;;;;;;;6.75;5.43;;;;;;;27.05;40.92;97898.94;10420920;28;20063;-57
2022/06/16 12:47:46;;;;;;;9.90;6.05;;;;;;;27.04;40.33;97896.34;10447085;28;20137;-56
2022/06/16 12:52:54;;;;;;;5.85;5.13;;;;;;;26.83;40.96;97899.47;10455110;28;20460;-56
2022/06/16 12:57:59;;;;;;;6.50;5.63;;;;;;;26.66;41.05;97894.34;10424264;28;20062;-56
2022/06/16 13:03:06;;;;;;;6.47;5.55;;;;;;;26.92;40.69;97882.03;10465126;28;20282;-57
2022/06/16 13:08:08;;;;;;;6.88;5.45;;;;;;;27.53;42.19;97882.44;10465874;28;20059;-57
2022/06/16 13:13:08;;;;;;;6.15;5.40;;;;;;;27.71;40.30;97886.53;10452676;28;20056;-57
2022/06/16 13:18:29;;;;;;;5.97;5.10;;;;;;;27.81;39.59;97884.91;10422859;28;20060;-56
2022/06/16 13:23:34;;;;;;;6.75;4.85;;;;;;;27.65;39.82;97896.75;10421424;28;20048;-56
2022/06/16 13:28:39;;;;;;;7.00;4.95;;;;;;;27.27;40.19;97893.03;10422613;28;20060;-56
2022/06/16 13:33:47;;;;;;;5.28;4.78;;;;;;;27.07;40.70;97893.47;10421506;28;20052;-57
2022/06/16 13:38:47;;;;;;;6.05;5.07;;;;;;;27.09;41.03;97881.75;10422150;28;20085;-56
2022/06/16 13:44:13;;;;;;;6.55;4.95;;;;;;;26.84;40.27;97889.66;10422264;28;20064;-57
2022/06/16 13:49:27;;;;;;;5.70;5.13;;;;;;;26.84;39.87;97877.22;10458744;28;20055;-57
2022/06/16 13:54:32;;;;;;;7.28;5.68;;;;;;;27.11;39.56;97887.00;10431689;28;20103;-56
2022/06/16 13:59:38;;;;;;;6.07;5.05;;;;;;;27.39;39.11;97868.19;10430703;28;20052;-57
2022/06/16 14:05:01;;;;;;;5.70;4.95;;;;;;;27.29;39.94;97861.81;10459549;28;20071;-56
2022/06/16 14:10:19;;;;;;;8.30;6.00;;;;;;;27.56;39.75;97863.56;10428855;28;20067;-56
2022/06/16 14:15:50;;;;;;;6.27;4.30;;;;;;;27.66;38.24;97859.31;10418019;28;20063;-56
2022/06/16 14:20:54;;;;;;;4.75;4.20;;;;;;;27.55;39.21;97861.88;10417747;28;20056;-56
2022/06/16 14:26:05;;;;;;;5.30;4.65;;;;;;;27.28;40.17;97860.06;10440848;28;20062;-57
2022/06/16 14:31:12;;;;;;;5.53;4.90;;;;;;;26.85;39.68;97851.44;10435349;28;20083;-57
2022/06/16 14:36:22;;;;;;;6.30;5.10;;;;;;;26.70;40.00;97850.63;10458390;28;20055;-56
2022/06/16 14:41:50;;;;;;;5.63;5.00;;;;;;;26.88;39.20;97841.44;10415713;28;20064;-56
2022/06/16 14:47:17;;;;;;;7.35;5.22;;;;;;;27.22;38.80;97825.88;10432809;28;20079;-57
2022/06/16 14:52:21;;;;;;;6.93;4.70;;;;;;;27.30;38.20;97820.84;10416176;28;20060;-57
2022/06/16 14:57:23;;;;;;;5.43;4.72;;;;;;;27.57;39.21;97811.97;10416285;28;20071;-57
2022/06/16 15:02:31;;;;;;;5.63;4.75;;;;;;;27.62;37.82;97815.16;10451419;28;20056;-57
2022/06/16 15:07:33;;;;;;;5.40;4.82;;;;;;;27.75;37.71;97794.69;10443749;28;20060;-56
2022/06/16 15:12:36;;;;;;;6.15;4.88;;;;;;;28.08;37.80;97795.97;10415363;28;20067;-57
2022/06/16 15:22:56;;;;;;;5.57;4.32;;;;;;;27.57;38.15;97782.66;10462812;28;20063;-58
2022/06/16 15:27:55;;;;;;;5.95;4.55;;;;;;;27.29;38.59;97789.84;10477648;28;20064;-58
2022/06/16 15:38:16;;;;;;;5.18;4.65;;;;;;;26.92;39.37;97768.38;10431701;28;20051;-58
2022/06/16 15:43:18;;;;;;;9.05;6.45;;;;;;;26.61;39.79;97774.88;10439245;28;20127;-57
2022/06/16 15:48:22;;;;;;;7.47;4.88;;;;;;;26.62;41.20;97770.41;10424182;28;20123;-58
2022/06/16 15:53:25;;;;;;;6.35;4.65;;;;;;;26.67;40.47;97768.28;10436736;28;20087;-58
2022/06/16 15:58:26;;;;;;;6.03;4.60;;;;;;;26.54;40.86;97779.75;10438646;28;20432;-57
2022/06/16 16:03:28;;;;;;;5.38;4.60;;;;;;;26.36;40.78;97780.94;10425475;28;20060;-57
2022/06/16 16:08:33;;;;;;;4.75;4.30;;;;;;;26.17;40.47;97782.09;10442177;28;20063;-58
2022/06/16 16:13:56;;;;;;;5.45;4.57;;;;;;;26.05;41.07;97772.25;10431243;28;20636;-58
2022/06/16 16:19:13;;;;;;;5.50;4.47;;;;;;;26.01;41.95;97765.41;10436674;28;20423;-57
2022/06/16 16:24:27;;;;;;;7.25;4.45;;;;;;;26.00;42.09;97762.84;10433906;28;20072;-57
2022/06/16 16:29:28;;;;;;;5.10;4.55;;;;;;;25.94;42.93;97775.56;10424318;28;20134;-57
2022/06/16 16:34:35;;;;;;;5.80;5.20;;;;;;;26.02;43.87;97775.09;10464392;28;20063;-58
2022/06/16 16:39:37;;;;;;;7.18;5.03;;;;;;;26.03;42.95;97774.13;10426079;28;20078;-57
2022/06/16 16:44:39;;;;;;;6.32;4.95;;;;;;;25.83;43.50;97777.19;10415268;28;20431;-58
2022/06/16 16:49:50;;;;;;;5.07;4.10;;;;;;;25.50;44.31;97783.63;10411726;28;20068;-57
2022/06/16 16:54:57;;;;;;;7.07;4.70;;;;;;;25.24;44.69;97786.03;10413601;28;20071;-57
2022/06/16 16:59:56;;;;;;;6.82;4.30;;;;;;;25.16;44.36;97776.84;10432429;28;20063;-58
2022/06/16 17:04:55;;;;;;;6.80;4.60;;;;;;;25.09;44.80;97792.28;10418707;28;20146;-58
2022/06/16 17:09:55;;;;;;;6.75;4.57;;;;;;;25.00;46.46;97798.16;10416256;28;20027;-58
2022/06/16 17:14:53;;;;;;;8.43;4.82;;;;;;;24.66;48.10;97805.38;10419598;28;20028;-58
2022/06/16 17:19:56;;;;;;;6.78;4.85;;;;;;;24.51;48.54;97807.09;10426803;28;20174;-58
2022/06/16 17:24:56;;;;;;;8.38;4.93;;;;;;;24.38;49.16;97800.78;10412329;28;20115;-58
2022/06/16 17:29:55;;;;;;;6.60;5.10;;;;;;;24.27;50.43;97812.00;10411669;28;20530;-58
2022/06/16 17:34:58;;;;;;;8.02;5.30;;;;;;;24.15;51.57;97820.63;10416887;28;20046;-58
2022/06/16 17:39:58;;;;;;;11.45;6.38;;;;;;;23.95;53.33;97821.69;10415720;28;20143;-58
2022/06/16 17:44:57;;;;;;;10.77;6.32;;;;;;;23.78;54.36;97823.44;10422337;28;20059;-58
2022/06/16 17:49:56;;;;;;;8.45;5.90;;;;;;;23.56;55.36;97818.44;10443846;28;20067;-57
2022/06/16 18:00:17;;;;;;;9.35;5.95;;;;;;;23.13;57.58;97825.91;10416911;28;20068;-57
2022/06/16 18:05:16;;;;;;;8.77;5.53;;;;;;;22.90;59.31;97829.69;10427837;28;20048;-57
2022/06/16 18:10:19;;;;;;;8.70;6.07;;;;;;;22.73;59.68;97833.16;10460113;28;20089;-57
2022/06/16 18:15:21;;;;;;;10.57;6.63;;;;;;;22.58;59.57;97828.63;10457699;28;20066;-58
2022/06/16 18:20:26;;;;;;;9.05;6.50;;;;;;;22.39;59.53;97826.03;10459709;28;20060;-57
2022/06/16 18:25:25;;;;;;;7.40;6.53;;;;;;;22.19;60.04;97829.59;10458378;28;20063;-58
2022/06/16 18:30:24;;;;;;;8.32;6.15;;;;;;;21.94;60.95;97836.00;10458251;28;20645;-57
2022/06/16 18:35:27;;;;;;;10.10;6.95;;;;;;;21.74;61.80;97838.66;10451348;28;20678;-57
2022/06/16 18:40:35;;;;;;;10.85;6.65;;;;;;;21.48;62.79;97835.41;10432048;28;20075;-57
2022/06/16 18:45:35;;;;;;;8.70;7.43;;;;;;;21.32;63.23;97847.53;10440240;28;20062;-57
2022/06/16 18:50:34;;;;;;;11.35;7.28;;;;;;;21.12;64.90;97843.94;10454720;28;20471;-57
2022/06/16 18:55:33;;;;;;;9.27;6.82;;;;;;;20.92;67.04;97851.84;10458109;28;20524;-58
2022/06/16 19:00:32;;;;;;;9.48;6.75;;;;;;;20.59;69.22;97849.63;10450619;28;20592;-58
2022/06/16 19:05:31;;;;;;;11.70;7.82;;;;;;;20.21;70.04;97817.72;10450928;28;20036;-57
2022/06/16 19:10:30;;;;;;;13.55;9.25;;;;;;;20.33;71.16;97852.38;10428645;28;20499;-58
2022/06/16 19:15:33;;;;;;;12.73;9.35;;;;;;;20.12;72.39;97854.97;10421847;28;20498;-57
2022/06/16 19:20:35;;;;;;;13.45;9.05;;;;;;;19.96;74.05;97856.44;10434687;28;20051;-57
2022/06/16 19:25:34;;;;;;;12.65;8.82;;;;;;;19.77;74.39;97875.56;10420964;28;20059;-57
2022/06/16 19:30:41;;;;;;;16.73;10.13;;;;;;;19.56;75.40;97865.78;10460445;28;20055;-57
2022/06/16 19:35:42;;;;;;;16.23;10.20;;;;;;;19.48;75.44;97878.31;10451707;28;20072;-57
2022/06/16 19:40:42;;;;;;;13.90;10.27;;;;;;;19.34;75.52;97877.00;10420288;28;20039;-57
2022/06/16 19:51:06;;;;;;;12.35;8.85;;;;;;;19.22;76.30;97890.59;10456260;28;20443;-57
2022/06/16 19:56:05;;;;;;;11.00;8.45;;;;;;;19.17;76.87;97895.16;10454573;28;20083;-57
2022/06/16 20:01:05;;;;;;;11.85;8.25;;;;;;;19.05;77.68;97883.28;10453283;28;20036;-57
2022/06/16 20:06:08;;;;;;;15.43;8.80;;;;;;;18.88;79.35;97882.94;10450946;28;20098;-57
2022/06/16 20:11:07;;;;;;;12.30;9.40;;;;;;;18.77;79.52;97885.94;10454878;28;20074;-57
2022/06/16 20:16:07;;;;;;;12.70;9.10;;;;;;;18.64;80.86;97882.78;10437451;28;20071;-57
2022/06/16 20:21:16;;;;;;;12.80;9.52;;;;;;;18.51;81.18;97890.22;10443382;28;20060;-57
2022/06/16 20:26:16;;;;;;;12.90;9.38;;;;;;;18.48;81.34;97886.81;10411505;28;20067;-57
2022/06/16 20:31:17;;;;;;;12.52;10.00;;;;;;;18.39;81.95;97887.97;10420843;28;20060;-57
2022/06/16 20:36:19;;;;;;;11.77;9.52;;;;;;;18.22;82.68;97883.19;10455404;28;20083;-57
2022/06/16 20:46:37;;;;;;;13.50;9.93;;;;;;;18.00;83.87;97896.09;10463281;28;20068;-57
2022/06/16 20:51:36;;;;;;;13.98;10.27;;;;;;;17.91;83.41;97893.75;10461971;28;20052;-57
2022/06/16 20:56:36;;;;;;;13.20;10.27;;;;;;;17.85;83.34;97899.19;10462398;28;20075;-57
2022/06/16 21:01:54;;;;;;;14.25;10.30;;;;;;;17.72;83.84;97899.47;10461885;28;20056;-57
2022/06/16 21:06:53;;;;;;;16.75;10.68;;;;;;;17.61;84.59;97898.03;10461969;28;20056;-57
2022/06/16 21:17:12;;;;;;;16.67;11.43;;;;;;;17.39;86.89;97910.88;10461344;28;20060;-57
2022/06/16 21:22:25;;;;;;;12.35;9.55;;;;;;;17.28;87.09;97914.59;10460291;28;20060;-57
2022/06/16 21:27:25;;;;;;;14.27;10.60;;;;;;;17.25;86.86;97903.34;10461318;28;20117;-57
2022/06/16 21:32:25;;;;;;;14.45;11.15;;;;;;;17.17;87.15;97911.41;10461599;28;20070;-57
2022/06/16 21:37:29;;;;;;;14.00;10.98;;;;;;;17.05;87.58;97894.22;10461008;28;20052;-57
2022/06/16 21:42:29;;;;;;;16.17;10.82;;;;;;;17.01;87.45;97903.06;10438547;28;20059;-57
2022/06/16 22:30:47;;;;;;;17.52;13.35;;;;;;;16.01;91.43;97894.78;10485911;27;20136;-57
2022/06/16 22:35:46;;;;;;;18.65;13.18;;;;;;;16.01;91.28;97894.78;10500863;28;20521;-57
2022/06/16 22:40:51;;;;;;;17.80;14.75;;;;;;;15.95;91.79;97894.94;10500054;28;20051;-57
2022/06/16 22:45:54;;;;;;;21.80;16.23;;;;;;;15.93;91.29;97880.13;10479825;28;20070;-57
2022/06/16 22:50:53;;;;;;;20.00;15.82;;;;;;;15.89;91.27;97889.81;10458203;28;20874;-57
2022/06/16 23:01:14;;;;;;;19.20;12.68;;;;;;;15.66;92.96;97870.16;10499797;28;19957;-57
2022/06/16 23:06:18;;;;;;;18.08;14.02;;;;;;;15.69;92.59;97892.78;10498653;28;20051;-57
2022/06/16 23:11:17;;;;;;;18.25;12.63;;;;;;;15.65;93.19;97894.59;10498374;28;20508;-59
2022/06/16 23:16:22;;;;;;;15.20;11.77;;;;;;;15.59;93.23;97881.63;10497994;28;20469;-57
2022/06/16 23:21:27;;;;;;;15.55;12.05;;;;;;;15.55;92.77;97885.22;10456511;28;20090;-57
2022/06/16 23:26:27;;;;;;;18.55;13.25;;;;;;;15.48;92.99;97883.56;10456452;28;20474;-57
2022/06/16 23:31:27;;;;;;;19.38;12.75;;;;;;;15.44;92.77;97872.31;10481353;28;20573;-57
2022/06/16 23:36:27;;;;;;;15.23;12.07;;;;;;;15.33;93.43;97876.03;10464274;28;20060;-57
2022/06/16 23:41:27;;;;;;;16.00;12.35;;;;;;;15.31;93.41;97878.66;10498757;28;20058;-57
2022/06/16 23:46:28;;;;;;;17.83;13.57;;;;;;;15.24;93.67;97875.28;10498526;28;20058;-57
2022/06/16 23:51:31;;;;;;;18.73;13.10;;;;;;;15.20;93.32;97871.03;10493256;28;20079;-57
2022/06/16 23:56:30;;;;;;;17.95;13.77;;;;;;;15.13;93.64;97866.81;10459917;28;20066;-57
